createdAt,value
2022-09-17T00:01:08.090Z,4.28
2022-09-17T00:03:35.537Z,4.00
2022-09-17T00:06:04.907Z,3.50
2022-09-17T00:08:31.950Z,3.53
2022-09-17T00:10:58.866Z,3.45
2022-09-17T00:13:25.501Z,3.03
2022-09-17T00:15:52.616Z,4.05
2022-09-17T00:18:19.379Z,3.22
2022-09-17T00:20:47.306Z,3.67
2022-09-17T00:23:15.133Z,5.60
2022-09-17T00:25:45.121Z,3.47
2022-09-17T00:28:13.799Z,2.70
2022-09-17T00:30:45.031Z,4.40
2022-09-17T00:33:14.380Z,4.25
2022-09-17T00:35:41.071Z,3.65
2022-09-17T00:38:07.976Z,3.75
2022-09-17T00:40:35.458Z,3.45
2022-09-17T00:43:02.571Z,2.50
2022-09-17T00:45:32.062Z,4.18
2022-09-17T00:48:04.194Z,3.42
2022-09-17T00:50:39.454Z,4.55
2022-09-17T00:53:10.883Z,4.03
2022-09-17T00:55:40.705Z,4.38
2022-09-17T00:58:12.022Z,4.78
2022-09-17T01:00:39.484Z,5.43
2022-09-17T01:03:06.482Z,5.75
2022-09-17T01:05:57.802Z,6.18
2022-09-17T01:08:34.622Z,7.72
2022-09-17T01:11:30.960Z,6.75
2022-09-17T01:14:10.282Z,7.28
2022-09-17T01:16:48.578Z,8.57
2022-09-17T01:19:30.451Z,7.28
2022-09-17T01:22:05.670Z,7.47
2022-09-17T01:25:02.574Z,6.25
2022-09-17T01:27:45.899Z,8.35
2022-09-17T01:31:08.212Z,7.00
2022-09-17T01:33:56.259Z,5.65
2022-09-17T01:36:58.213Z,5.85
2022-09-17T01:39:34.349Z,4.63
2022-09-17T01:42:18.739Z,4.70
2022-09-17T01:44:50.597Z,4.88
2022-09-17T01:47:31.256Z,5.30
2022-09-17T01:50:05.253Z,5.78
2022-09-17T01:52:35.917Z,3.30
2022-09-17T01:55:08.167Z,3.90
2022-09-17T01:57:42.617Z,5.88
2022-09-17T02:00:14.032Z,5.00
2022-09-17T02:02:53.704Z,4.53
2022-09-17T02:05:28.842Z,3.70
2022-09-17T02:07:59.906Z,3.65
2022-09-17T02:10:34.617Z,4.63
2022-09-17T02:13:14.139Z,3.38
2022-09-17T02:15:47.162Z,3.85
2022-09-17T02:18:29.746Z,4.22
2022-09-17T02:21:08.869Z,5.85
2022-09-17T02:23:41.198Z,5.10
2022-09-17T02:26:12.113Z,6.53
2022-09-17T02:28:55.198Z,5.35
2022-09-17T02:31:22.855Z,7.68
2022-09-17T02:33:53.271Z,6.97
2022-09-17T02:36:20.189Z,6.25
2022-09-17T02:38:46.914Z,6.07
2022-09-17T02:41:55.374Z,7.15
2022-09-17T02:44:29.358Z,6.63
2022-09-17T02:47:22.011Z,5.57
2022-09-17T02:50:03.698Z,7.75
2022-09-17T02:53:07.807Z,5.95
2022-09-17T02:55:41.959Z,7.57
2022-09-17T02:58:14.978Z,7.28
2022-09-17T03:00:43.081Z,6.28
2022-09-17T03:03:37.145Z,6.53
2022-09-17T03:06:05.650Z,7.72
2022-09-17T03:08:40.070Z,5.57
2022-09-17T03:11:09.133Z,6.40
2022-09-17T03:13:36.375Z,7.90
2022-09-17T03:16:04.204Z,6.18
2022-09-17T03:18:31.266Z,6.35
2022-09-17T03:20:58.435Z,8.82
2022-09-17T03:23:25.530Z,9.35
2022-09-17T03:25:52.171Z,6.95
2022-09-17T03:28:18.793Z,8.43
2022-09-17T03:30:45.635Z,10.60
2022-09-17T03:33:12.888Z,10.73
2022-09-17T03:35:43.622Z,9.75
2022-09-17T03:38:10.649Z,9.57
2022-09-17T03:40:37.433Z,9.95
2022-09-17T03:43:04.695Z,10.38
2022-09-17T03:45:31.509Z,13.38
2022-09-17T03:47:59.258Z,12.27
2022-09-17T03:50:26.121Z,13.32
2022-09-17T03:52:52.954Z,12.18
2022-09-17T03:55:19.557Z,16.60
2022-09-17T03:57:46.219Z,11.43
2022-09-17T04:00:15.436Z,12.23
2022-09-17T04:02:42.158Z,10.85
2022-09-17T04:05:09.309Z,11.25
2022-09-17T04:07:36.701Z,14.45
2022-09-17T04:10:05.347Z,10.90
2022-09-17T04:12:32.392Z,10.93
2022-09-17T04:14:59.047Z,10.82
2022-09-17T04:17:26.071Z,11.18
2022-09-17T04:19:53.579Z,13.90
2022-09-17T04:22:20.253Z,10.98
2022-09-17T04:24:46.930Z,11.75
2022-09-17T04:27:13.628Z,11.50
2022-09-17T04:29:40.227Z,10.40
2022-09-17T04:32:07.452Z,10.38
2022-09-17T04:34:34.371Z,10.00
2022-09-17T04:37:00.998Z,11.35
2022-09-17T04:39:27.619Z,9.38
2022-09-17T04:41:55.225Z,6.95
2022-09-17T04:44:22.867Z,7.72
2022-09-17T04:46:49.507Z,6.18
2022-09-17T04:49:16.174Z,10.75
2022-09-17T04:51:42.836Z,6.45
2022-09-17T04:54:09.522Z,6.25
2022-09-17T04:56:36.216Z,7.03
2022-09-17T04:59:02.854Z,4.63
2022-09-17T05:01:29.526Z,4.80
2022-09-17T05:03:56.166Z,4.95
2022-09-17T05:06:22.799Z,4.22
2022-09-17T05:08:49.426Z,4.63
2022-09-17T05:11:16.073Z,7.55
2022-09-17T05:13:42.669Z,4.65
2022-09-17T05:16:09.430Z,5.28
2022-09-17T05:18:36.122Z,9.43
2022-09-17T05:21:02.965Z,4.65
2022-09-17T05:23:29.610Z,9.82
2022-09-17T05:26:00.307Z,5.78
2022-09-17T05:28:28.224Z,7.25
2022-09-17T05:30:54.973Z,6.18
2022-09-17T05:33:21.678Z,6.53
2022-09-17T05:35:48.750Z,5.63
2022-09-17T05:38:15.462Z,7.53
2022-09-17T05:40:42.092Z,6.90
2022-09-17T05:43:10.162Z,6.03
2022-09-17T05:45:37.595Z,9.13
2022-09-17T05:48:06.443Z,7.18
2022-09-17T05:50:33.430Z,10.60
2022-09-17T05:53:09.062Z,7.03
2022-09-17T05:55:36.082Z,6.05
2022-09-17T05:58:13.715Z,5.90
2022-09-17T06:00:42.644Z,8.30
2022-09-17T06:03:12.307Z,6.35
2022-09-17T06:05:39.422Z,7.00
2022-09-17T06:08:06.774Z,5.78
2022-09-17T06:10:37.087Z,6.65
2022-09-17T06:13:04.072Z,6.57
2022-09-17T06:15:30.957Z,6.63
2022-09-17T06:17:57.630Z,6.47
2022-09-17T06:20:24.305Z,7.63
2022-09-17T06:22:56.671Z,6.47
2022-09-17T06:25:23.785Z,6.38
2022-09-17T06:27:50.552Z,10.98
2022-09-17T06:30:17.281Z,8.38
2022-09-17T06:32:43.860Z,9.23
2022-09-17T06:35:10.635Z,8.82
2022-09-17T06:37:40.254Z,11.75
2022-09-17T06:40:08.439Z,14.30
2022-09-17T06:42:35.097Z,12.93
2022-09-17T06:45:06.939Z,13.40
2022-09-17T06:47:35.243Z,17.17
2022-09-17T06:50:02.152Z,20.55
2022-09-17T06:52:28.804Z,17.40
2022-09-17T06:54:55.617Z,16.42
2022-09-17T06:57:22.243Z,12.63
2022-09-17T06:59:52.410Z,16.35
2022-09-17T07:02:22.032Z,15.82
2022-09-17T07:04:54.832Z,13.57
2022-09-17T07:07:24.474Z,14.70
2022-09-17T07:09:54.137Z,15.40
2022-09-17T07:12:23.266Z,14.20
2022-09-17T07:14:52.162Z,16.17
2022-09-17T07:17:19.004Z,14.63
2022-09-17T07:19:46.015Z,12.88
2022-09-17T07:22:14.004Z,16.30
2022-09-17T07:24:40.583Z,11.23
2022-09-17T07:27:07.266Z,11.93
2022-09-17T07:29:33.827Z,9.00
2022-09-17T07:32:00.716Z,9.93
2022-09-17T07:34:29.076Z,9.82
2022-09-17T07:36:55.710Z,8.82
2022-09-17T07:39:22.341Z,9.63
2022-09-17T07:41:48.958Z,9.27
2022-09-17T07:44:15.548Z,9.63
2022-09-17T07:46:45.330Z,8.70
2022-09-17T07:49:12.241Z,9.20
2022-09-17T07:51:40.523Z,8.70
2022-09-17T07:54:07.551Z,9.05
2022-09-17T07:56:34.798Z,8.20
2022-09-17T07:59:02.719Z,7.80
2022-09-17T08:01:29.522Z,7.75
2022-09-17T08:03:56.161Z,9.25
2022-09-17T08:06:28.355Z,10.52
2022-09-17T08:08:56.585Z,8.15
2022-09-17T08:11:54.549Z,7.93
2022-09-17T08:14:14.925Z,8.40
2022-09-17T08:16:42.069Z,10.25
2022-09-17T08:19:11.942Z,7.22
2022-09-17T08:21:40.484Z,6.63
2022-09-17T08:24:07.380Z,6.38
2022-09-17T08:26:34.102Z,5.60
2022-09-17T08:29:00.730Z,4.95
2022-09-17T08:31:30.390Z,4.30
2022-09-17T08:33:57.795Z,5.28
2022-09-17T08:36:26.604Z,5.05
2022-09-17T08:38:54.800Z,5.97
2022-09-17T08:41:36.490Z,4.78
2022-09-17T08:44:18.481Z,4.57
2022-09-17T08:47:04.187Z,4.55
2022-09-17T08:49:36.760Z,3.60
2022-09-17T08:52:06.300Z,4.47
2022-09-17T08:54:38.626Z,3.75
2022-09-17T08:57:26.597Z,3.75
2022-09-17T09:00:17.502Z,4.38
2022-09-17T09:03:23.045Z,3.70
2022-09-17T09:05:53.453Z,3.72
2022-09-17T09:09:04.217Z,5.47
2022-09-17T09:11:31.823Z,4.70
2022-09-17T09:14:13.531Z,6.55
2022-09-17T09:16:45.125Z,6.22
2022-09-17T09:19:20.985Z,5.28
2022-09-17T09:22:05.960Z,6.22
2022-09-17T09:24:51.853Z,5.00
2022-09-17T09:27:27.959Z,6.35
2022-09-17T09:30:11.123Z,4.88
2022-09-17T09:32:56.511Z,5.60
2022-09-17T09:35:30.021Z,5.07
2022-09-17T09:38:04.655Z,5.50
2022-09-17T09:40:51.618Z,4.35
2022-09-17T09:44:12.669Z,4.65
2022-09-17T09:46:57.917Z,4.97
2022-09-17T09:49:44.578Z,4.75
2022-09-17T09:52:27.824Z,6.72
2022-09-17T09:55:06.588Z,3.40
2022-09-17T09:57:41.282Z,4.05
2022-09-17T10:00:30.553Z,3.40
2022-09-17T10:03:14.181Z,3.65
2022-09-17T10:06:02.044Z,3.80
2022-09-17T10:08:32.063Z,2.92
2022-09-17T10:10:58.853Z,4.68
2022-09-17T10:13:26.636Z,4.43
2022-09-17T10:15:53.483Z,3.33
2022-09-17T10:18:24.754Z,3.65
2022-09-17T10:24:12.636Z,2.95
2022-09-17T10:27:22.959Z,4.72
2022-09-17T10:29:55.845Z,4.97
2022-09-17T10:32:23.106Z,3.67
2022-09-17T10:35:05.820Z,4.43
2022-09-17T10:37:50.423Z,3.40
2022-09-17T10:40:20.194Z,4.03
2022-09-17T10:42:54.511Z,4.28
2022-09-17T10:45:29.699Z,4.82
2022-09-17T10:47:58.398Z,3.78
2022-09-17T10:50:30.853Z,5.22
2022-09-17T10:53:07.264Z,4.30
2022-09-17T10:55:38.768Z,2.75
2022-09-17T10:58:08.560Z,4.13
2022-09-17T11:00:53.344Z,5.50
2022-09-17T11:03:38.355Z,4.70
2022-09-17T11:06:14.471Z,2.63
2022-09-17T11:08:50.414Z,2.28
2022-09-17T11:11:32.407Z,1.33
2022-09-17T11:14:25.178Z,2.63
2022-09-17T11:17:22.491Z,1.15
2022-09-17T11:20:12.380Z,1.20
2022-09-17T11:23:19.315Z,1.25
2022-09-17T11:26:01.063Z,1.33
2022-09-17T11:28:46.661Z,1.47
2022-09-17T11:31:34.579Z,3.80
2022-09-17T11:34:19.850Z,1.40
2022-09-17T11:36:51.001Z,1.25
2022-09-17T11:39:25.873Z,1.98
2022-09-17T11:41:55.191Z,3.85
2022-09-17T11:44:30.983Z,2.78
2022-09-17T11:47:13.952Z,1.58
2022-09-17T11:52:36.794Z,1.08
2022-09-17T11:55:21.521Z,1.35
2022-09-17T11:57:52.895Z,1.45
2022-09-17T12:00:22.732Z,2.47
2022-09-17T12:02:58.732Z,1.98
2022-09-17T12:05:31.756Z,2.60
2022-09-17T12:08:25.852Z,1.88
2022-09-17T12:11:00.652Z,1.30
2022-09-17T12:13:36.642Z,1.08
2022-09-17T12:16:20.163Z,0.98
2022-09-17T12:19:10.227Z,1.88
2022-09-17T12:21:48.910Z,1.60
2022-09-17T12:24:24.338Z,1.77
2022-09-17T12:27:14.086Z,1.05
2022-09-17T12:29:48.039Z,0.80
2022-09-17T12:32:48.773Z,1.25
2022-09-17T12:36:04.109Z,1.10
2022-09-17T12:38:40.498Z,0.68
2022-09-17T12:41:36.597Z,1.23
2022-09-17T12:44:30.730Z,4.78
2022-09-17T12:47:19.264Z,1.58
2022-09-17T12:50:15.008Z,1.13
2022-09-17T12:52:57.550Z,1.90
2022-09-17T12:55:36.183Z,3.50
2022-09-17T12:58:42.558Z,1.15
2022-09-17T13:01:15.127Z,0.60
2022-09-17T13:06:34.036Z,1.58
2022-09-17T13:09:36.210Z,1.48
2022-09-17T13:12:03.298Z,2.88
2022-09-17T13:14:36.010Z,1.23
2022-09-17T13:20:13.242Z,3.33
2022-09-17T13:22:48.948Z,1.77
2022-09-17T13:25:18.373Z,2.22
2022-09-17T13:27:47.118Z,0.57
2022-09-17T13:30:18.615Z,0.52
2022-09-17T13:32:49.605Z,3.67
2022-09-17T13:35:16.175Z,1.85
2022-09-17T13:37:55.048Z,1.48
2022-09-17T13:40:24.524Z,1.88
2022-09-17T13:43:13.853Z,4.80
2022-09-17T13:45:58.770Z,3.25
2022-09-17T13:48:28.643Z,4.50
2022-09-17T13:50:55.531Z,4.45
2022-09-17T13:53:27.029Z,7.28
2022-09-17T13:55:56.948Z,4.55
2022-09-17T13:58:27.131Z,4.97
2022-09-17T14:00:56.012Z,4.07
2022-09-17T14:03:28.893Z,3.53
2022-09-17T14:05:56.259Z,6.03
2022-09-17T14:08:30.443Z,2.22
2022-09-17T14:11:00.402Z,3.25
2022-09-17T14:13:39.342Z,1.70
2022-09-17T14:16:25.338Z,1.52
2022-09-17T14:19:05.308Z,3.65
2022-09-17T14:21:35.751Z,1.25
2022-09-17T14:24:20.756Z,1.30
2022-09-17T14:27:09.620Z,0.93
2022-09-17T14:29:57.803Z,2.72
2022-09-17T14:32:48.462Z,1.77
2022-09-17T14:35:23.616Z,1.70
2022-09-17T14:38:08.868Z,2.13
2022-09-17T14:40:35.795Z,2.75
2022-09-17T14:43:03.551Z,3.90
2022-09-17T14:45:41.542Z,2.38
2022-09-17T14:48:40.595Z,4.47
2022-09-17T14:51:19.105Z,2.53
2022-09-17T14:53:47.631Z,2.58
2022-09-17T14:56:17.758Z,2.22
2022-09-17T14:58:50.948Z,3.70
2022-09-17T15:01:31.227Z,1.77
2022-09-17T15:04:12.588Z,3.38
2022-09-17T15:06:43.187Z,2.20
2022-09-17T15:09:16.986Z,2.38
2022-09-17T15:11:45.453Z,3.80
2022-09-17T15:14:18.802Z,4.03
2022-09-17T15:16:56.386Z,2.75
2022-09-17T15:19:37.414Z,2.70
2022-09-17T15:22:13.302Z,1.90
2022-09-17T15:24:42.113Z,4.32
2022-09-17T15:27:23.541Z,2.63
2022-09-17T15:29:56.867Z,2.60
2022-09-17T15:32:23.766Z,2.83
2022-09-17T15:35:15.433Z,3.05
2022-09-17T15:38:21.283Z,4.07
2022-09-17T15:40:41.604Z,3.17
2022-09-17T15:43:33.901Z,5.55
2022-09-17T15:46:29.606Z,3.97
2022-09-17T15:49:01.860Z,4.03
2022-09-17T15:51:34.504Z,3.40
2022-09-17T15:54:04.981Z,2.40
2022-09-17T15:56:40.284Z,5.97
2022-09-17T15:59:26.359Z,3.22
2022-09-17T16:01:56.335Z,3.95
2022-09-17T16:04:24.423Z,5.00
2022-09-17T16:07:12.673Z,3.85
2022-09-17T16:09:53.387Z,4.13
2022-09-17T16:12:26.069Z,2.97
2022-09-17T16:14:57.900Z,5.03
2022-09-17T16:17:33.319Z,4.20
2022-09-17T16:20:05.882Z,3.28
2022-09-17T16:22:33.243Z,1.27
2022-09-17T16:24:59.855Z,1.95
2022-09-17T16:27:31.919Z,1.05
2022-09-17T16:30:13.366Z,1.27
2022-09-17T16:32:40.111Z,1.80
2022-09-17T16:35:07.138Z,0.93
2022-09-17T16:37:33.801Z,3.33
2022-09-17T16:40:01.052Z,1.90
2022-09-17T16:42:31.309Z,1.00
2022-09-17T16:45:00.135Z,0.93
2022-09-17T16:47:26.788Z,1.95
2022-09-17T16:49:53.430Z,1.00
2022-09-17T16:52:20.101Z,0.57
2022-09-17T16:54:46.749Z,2.20
2022-09-17T16:57:13.326Z,0.63
2022-09-17T16:59:40.069Z,2.58
2022-09-17T17:02:07.206Z,0.45
2022-09-17T17:04:33.794Z,0.85
2022-09-17T17:07:00.782Z,0.22
2022-09-17T17:09:27.665Z,0.68
2022-09-17T17:11:54.517Z,0.35
2022-09-17T17:14:21.103Z,0.25
2022-09-17T17:16:47.797Z,2.95
2022-09-17T17:19:14.385Z,0.05
2022-09-17T17:21:44.040Z,0.20
2022-09-17T17:24:13.786Z,1.17
2022-09-17T17:26:40.545Z,3.38
2022-09-17T17:29:08.078Z,0.30
2022-09-17T17:31:35.337Z,1.27
2022-09-17T17:34:02.136Z,0.10
2022-09-17T17:36:28.858Z,0.10
2022-09-17T17:38:59.950Z,0.45
2022-09-17T17:41:27.482Z,0.13
2022-09-17T17:43:55.414Z,0.13
2022-09-17T17:46:23.272Z,0.15
2022-09-17T17:48:50.791Z,1.75
2022-09-17T17:51:23.794Z,0.60
2022-09-17T17:53:51.535Z,0.47
2022-09-17T17:56:18.686Z,2.42
2022-09-17T17:58:45.384Z,0.55
2022-09-17T18:01:18.402Z,0.20
2022-09-17T18:03:45.238Z,0.40
2022-09-17T18:06:12.141Z,0.50
2022-09-17T18:08:41.080Z,0.28
2022-09-17T18:11:10.294Z,0.43
2022-09-17T18:13:38.319Z,1.38
2022-09-17T18:16:07.689Z,0.20
2022-09-17T18:18:44.685Z,0.70
2022-09-17T18:21:15.960Z,0.30
2022-09-17T18:23:43.475Z,1.30
2022-09-17T18:26:18.815Z,1.60
2022-09-17T18:28:46.075Z,0.55
2022-09-17T18:31:33.083Z,3.60
2022-09-17T18:34:11.935Z,0.20
2022-09-17T18:36:39.688Z,0.57
2022-09-17T18:39:56.989Z,0.45
2022-09-17T18:41:55.798Z,0.50
2022-09-17T18:44:22.610Z,1.15
2022-09-17T18:46:51.817Z,1.75
2022-09-17T18:49:18.553Z,1.42
2022-09-17T18:51:45.156Z,0.32
2022-09-17T18:54:15.212Z,0.50
2022-09-17T18:56:42.336Z,1.13
2022-09-17T18:59:10.201Z,0.28
2022-09-17T19:01:37.208Z,1.48
2022-09-17T19:04:04.226Z,1.85
2022-09-17T19:06:32.329Z,1.35
2022-09-17T19:09:03.751Z,1.20
2022-09-17T19:11:30.654Z,1.23
2022-09-17T19:13:57.857Z,0.50
2022-09-17T19:16:24.782Z,0.30
2022-09-17T19:18:51.670Z,1.50
2022-09-17T19:21:21.589Z,2.35
2022-09-17T19:23:51.009Z,2.45
2022-09-17T19:26:23.523Z,0.85
2022-09-17T19:28:54.189Z,1.55
2022-09-17T19:31:21.290Z,1.23
2022-09-17T19:33:48.211Z,1.10
2022-09-17T19:36:17.031Z,0.90
2022-09-17T19:38:44.406Z,1.67
2022-09-17T19:41:13.690Z,1.13
2022-09-17T19:43:40.734Z,3.28
2022-09-17T19:46:10.738Z,1.77
2022-09-17T19:48:37.732Z,1.17
2022-09-17T19:51:05.490Z,3.80
2022-09-17T19:53:33.082Z,3.72
2022-09-17T19:56:02.967Z,0.40
2022-09-17T19:58:29.646Z,1.40
2022-09-17T20:00:57.520Z,2.05
2022-09-17T20:03:24.964Z,0.82
2022-09-17T20:06:02.845Z,1.13
2022-09-17T20:08:31.576Z,1.17
2022-09-17T20:11:05.560Z,1.33
2022-09-17T20:13:32.194Z,0.82
2022-09-17T20:16:05.598Z,1.90
2022-09-17T20:18:32.650Z,2.83
2022-09-17T20:20:59.258Z,0.80
2022-09-17T20:23:30.969Z,5.15
2022-09-17T20:25:57.704Z,1.23
2022-09-17T20:28:24.320Z,0.90
2022-09-17T20:31:03.246Z,1.20
2022-09-17T20:33:30.215Z,0.98
2022-09-17T20:36:00.068Z,0.90
2022-09-17T20:39:10.019Z,3.15
2022-09-17T20:41:14.473Z,0.95
2022-09-17T20:43:43.593Z,0.82
2022-09-17T20:46:11.799Z,1.42
2022-09-17T20:48:38.565Z,0.80
2022-09-17T20:51:12.431Z,0.73
2022-09-17T20:53:40.267Z,0.75
2022-09-17T20:56:12.776Z,0.93
2022-09-17T20:58:48.930Z,0.60
2022-09-17T21:01:21.780Z,3.35
2022-09-17T21:03:51.149Z,1.73
2022-09-17T21:06:20.095Z,3.08
2022-09-17T21:08:47.736Z,1.65
2022-09-17T21:11:15.323Z,1.13
2022-09-17T21:13:41.987Z,3.95
2022-09-17T21:16:09.759Z,1.40
2022-09-17T21:18:39.555Z,2.60
2022-09-17T21:21:17.976Z,4.70
2022-09-17T21:23:45.037Z,5.78
2022-09-17T21:26:20.567Z,3.97
2022-09-17T21:28:48.922Z,7.10
2022-09-17T21:31:17.239Z,7.50
2022-09-17T21:33:45.289Z,6.15
2022-09-17T21:36:17.352Z,6.30
2022-09-17T21:38:44.587Z,5.37
2022-09-17T21:41:14.215Z,3.67
2022-09-17T21:43:42.027Z,4.68
2022-09-17T21:46:10.224Z,2.08
2022-09-17T21:48:42.352Z,3.92
2022-09-17T21:51:11.686Z,2.43
2022-09-17T21:53:38.863Z,3.70
2022-09-17T21:56:07.842Z,2.53
2022-09-17T21:58:37.950Z,0.98
2022-09-17T22:01:05.749Z,1.17
2022-09-17T22:03:32.330Z,3.92
2022-09-17T22:06:22.193Z,2.00
2022-09-17T22:08:50.278Z,3.03
2022-09-17T22:11:22.805Z,1.00
2022-09-17T22:13:56.500Z,1.25
2022-09-17T22:16:27.064Z,0.68
2022-09-17T22:18:53.806Z,1.10
2022-09-17T22:21:25.145Z,2.03
2022-09-17T22:23:55.787Z,1.48
2022-09-17T22:26:24.523Z,1.65
2022-09-17T22:28:52.113Z,0.32
2022-09-17T22:31:19.343Z,2.72
2022-09-17T22:33:50.313Z,1.42
2022-09-17T22:36:22.319Z,0.57
2022-09-17T22:38:51.466Z,0.50
2022-09-17T22:41:25.578Z,0.50
2022-09-17T22:43:56.165Z,2.53
2022-09-17T22:46:26.098Z,0.68
2022-09-17T22:48:52.777Z,0.68
2022-09-17T22:51:19.714Z,2.38
2022-09-17T22:53:46.404Z,0.60
2022-09-17T22:56:18.582Z,0.63
2022-09-17T22:58:45.612Z,1.88
2022-09-17T23:01:21.169Z,0.98
2022-09-17T23:03:49.014Z,1.33
2022-09-17T23:06:18.415Z,0.45
2022-09-17T23:08:45.207Z,0.30
2022-09-17T23:11:31.933Z,1.67
2022-09-17T23:14:04.365Z,1.20
2022-09-17T23:16:42.299Z,1.00
2022-09-17T23:19:09.453Z,1.20
2022-09-17T23:21:37.215Z,2.85
2022-09-17T23:24:04.107Z,0.50
2022-09-17T23:26:30.910Z,0.85
2022-09-17T23:29:02.422Z,1.42
2022-09-17T23:31:31.309Z,0.40
2022-09-17T23:34:01.358Z,0.55
2022-09-17T23:36:30.603Z,0.85
2022-09-17T23:38:58.543Z,1.00
2022-09-17T23:41:30.579Z,0.77
2022-09-17T23:43:59.932Z,3.95
2022-09-17T23:46:28.577Z,0.50
2022-09-17T23:48:55.326Z,0.57
2022-09-17T23:51:26.509Z,2.13
2022-09-17T23:53:54.487Z,1.92
2022-09-17T23:56:24.008Z,1.85
2022-09-17T23:58:51.174Z,0.30
